createdAt,value
2019-05-29T00:02:02.134Z,7.07
2019-05-29T00:04:31.552Z,5.23
2019-05-29T00:07:00.943Z,6.03
2019-05-29T00:09:30.365Z,6.40
2019-05-29T00:11:59.779Z,5.30
2019-05-29T00:14:29.176Z,5.20
2019-05-29T00:16:58.659Z,5.93
2019-05-29T00:19:28.027Z,7.03
2019-05-29T00:21:57.379Z,7.47
2019-05-29T00:24:26.795Z,5.97
2019-05-29T00:26:56.584Z,5.87
2019-05-29T00:29:26.029Z,5.90
2019-05-29T00:31:55.545Z,5.20
2019-05-29T00:34:25.247Z,6.03
2019-05-29T00:36:54.641Z,8.67
2019-05-29T00:39:24.043Z,6.47
2019-05-29T00:41:53.447Z,6.83
2019-05-29T00:44:33.821Z,7.47
2019-05-29T00:46:53.915Z,7.37
2019-05-29T00:49:23.307Z,7.00
2019-05-29T00:51:52.757Z,6.90
2019-05-29T00:54:22.144Z,7.10
2019-05-29T00:56:51.563Z,6.67
2019-05-29T00:59:20.979Z,7.23
2019-05-29T01:01:50.373Z,10.47
2019-05-29T01:04:20.058Z,11.00
2019-05-29T01:06:49.465Z,6.63
2019-05-29T01:09:18.878Z,8.60
2019-05-29T01:11:48.265Z,11.63
2019-05-29T01:14:17.658Z,7.63
2019-05-29T01:16:47.094Z,7.27
2019-05-29T01:19:25.552Z,7.60
2019-05-29T01:21:55.869Z,7.77
2019-05-29T01:24:25.497Z,7.10
2019-05-29T01:26:54.902Z,7.83
2019-05-29T01:29:24.360Z,7.47
2019-05-29T01:31:54.145Z,7.57
2019-05-29T01:34:24.128Z,7.73
2019-05-29T01:36:53.520Z,7.87
2019-05-29T01:39:23.504Z,9.43
2019-05-29T01:41:52.943Z,10.63
2019-05-29T01:44:23.592Z,8.50
2019-05-29T01:46:53.103Z,10.30
2019-05-29T01:49:23.696Z,8.40
2019-05-29T01:51:53.211Z,8.23
2019-05-29T01:54:23.720Z,9.90
2019-05-29T01:56:53.500Z,7.80
2019-05-29T01:59:23.973Z,9.50
2019-05-29T02:01:53.445Z,9.90
2019-05-29T02:04:24.050Z,13.27
2019-05-29T02:06:53.647Z,8.07
2019-05-29T02:09:24.150Z,8.83
2019-05-29T02:11:53.743Z,7.67
2019-05-29T02:14:23.114Z,8.57
2019-05-29T02:16:52.490Z,9.43
2019-05-29T02:19:21.951Z,8.80
2019-05-29T02:21:51.296Z,7.93
2019-05-29T02:24:21.179Z,8.67
2019-05-29T02:26:50.647Z,10.23
2019-05-29T02:29:20.824Z,9.77
2019-05-29T02:31:50.369Z,10.57
2019-05-29T02:34:20.116Z,8.70
2019-05-29T02:36:50.080Z,8.27
2019-05-29T02:39:21.141Z,8.13
2019-05-29T02:41:50.917Z,8.27
2019-05-29T02:44:21.119Z,8.30
2019-05-29T02:46:51.429Z,8.37
2019-05-29T02:49:21.605Z,9.87
2019-05-29T02:51:51.080Z,8.93
2019-05-29T02:54:20.528Z,10.33
2019-05-29T02:56:51.423Z,10.03
2019-05-29T02:59:21.380Z,8.23
2019-05-29T03:01:52.280Z,7.97
2019-05-29T03:04:21.838Z,9.03
2019-05-29T03:06:51.170Z,9.57
2019-05-29T03:09:20.557Z,10.60
2019-05-29T03:11:51.856Z,9.20
2019-05-29T03:14:22.800Z,11.33
2019-05-29T03:16:52.288Z,8.00
2019-05-29T03:19:21.732Z,7.23
2019-05-29T03:21:51.143Z,8.13
2019-05-29T03:24:20.529Z,11.47
2019-05-29T03:26:49.937Z,7.63
2019-05-29T03:29:19.367Z,8.30
2019-05-29T03:31:48.958Z,9.10
2019-05-29T03:34:18.453Z,8.70
2019-05-29T03:36:48.813Z,9.27
2019-05-29T03:39:18.721Z,10.33
2019-05-29T03:41:48.122Z,8.43
2019-05-29T03:44:17.484Z,7.83
2019-05-29T03:46:46.933Z,7.50
2019-05-29T03:49:16.288Z,7.77
2019-05-29T03:51:45.720Z,8.73
2019-05-29T03:54:15.132Z,9.37
2019-05-29T03:56:44.565Z,12.53
2019-05-29T03:59:13.953Z,7.77
2019-05-29T04:01:43.344Z,9.50
2019-05-29T04:04:12.744Z,8.67
2019-05-29T04:06:42.148Z,8.23
2019-05-29T04:09:11.520Z,13.17
2019-05-29T04:11:40.933Z,7.93
2019-05-29T04:14:10.340Z,7.20
2019-05-29T04:16:58.404Z,7.43
2019-05-29T04:19:13.929Z,7.73
2019-05-29T04:21:45.428Z,9.53
2019-05-29T04:24:16.174Z,10.37
2019-05-29T04:26:47.169Z,7.47
2019-05-29T04:29:16.833Z,7.07
2019-05-29T04:31:46.202Z,9.60
2019-05-29T04:34:16.499Z,7.50
2019-05-29T04:36:45.830Z,6.93
2019-05-29T04:39:15.360Z,10.63
2019-05-29T04:41:44.769Z,7.80
2019-05-29T04:44:14.200Z,8.73
2019-05-29T04:46:43.926Z,8.53
2019-05-29T04:49:13.300Z,7.97
2019-05-29T04:51:42.719Z,7.27
2019-05-29T04:54:12.097Z,9.50
2019-05-29T04:56:41.471Z,7.43
2019-05-29T04:59:10.871Z,7.23
2019-05-29T05:01:40.244Z,8.33
2019-05-29T05:04:09.682Z,7.30
2019-05-29T05:06:39.514Z,6.63
2019-05-29T05:09:09.087Z,6.67
2019-05-29T05:11:39.567Z,10.10
2019-05-29T05:14:09.220Z,8.93
2019-05-29T05:16:39.886Z,8.07
2019-05-29T05:19:09.442Z,9.40
2019-05-29T05:21:40.140Z,7.67
2019-05-29T05:24:10.778Z,8.43
2019-05-29T05:26:40.459Z,7.67
2019-05-29T05:29:09.900Z,7.67
2019-05-29T05:31:40.407Z,8.13
2019-05-29T05:34:10.117Z,7.73
2019-05-29T05:36:39.496Z,9.67
2019-05-29T05:39:08.931Z,10.43
2019-05-29T05:41:39.000Z,10.03
2019-05-29T05:44:08.410Z,8.40
2019-05-29T05:46:37.791Z,8.40
2019-05-29T05:49:07.685Z,8.57
2019-05-29T05:51:39.915Z,8.80
2019-05-29T05:54:08.151Z,9.27
2019-05-29T05:56:37.743Z,10.87
2019-05-29T05:59:07.263Z,10.03
2019-05-29T06:01:37.834Z,9.67
2019-05-29T06:04:07.356Z,10.00
2019-05-29T06:06:38.023Z,8.93
2019-05-29T06:09:08.319Z,7.90
2019-05-29T06:11:38.338Z,8.27
2019-05-29T06:14:08.487Z,9.03
2019-05-29T06:16:38.648Z,9.23
2019-05-29T06:19:08.088Z,10.13
2019-05-29T06:21:38.703Z,8.37
2019-05-29T06:24:08.090Z,12.97
2019-05-29T06:26:37.480Z,8.70
2019-05-29T06:29:07.000Z,9.53
2019-05-29T06:31:37.206Z,10.80
2019-05-29T06:34:06.681Z,10.37
2019-05-29T06:36:37.865Z,8.77
2019-05-29T06:39:08.301Z,7.90
2019-05-29T06:41:37.848Z,10.30
2019-05-29T06:44:07.186Z,8.43
2019-05-29T06:46:38.158Z,8.70
2019-05-29T06:49:07.932Z,11.00
2019-05-29T06:51:37.336Z,7.90
2019-05-29T06:54:06.731Z,7.50
2019-05-29T06:56:36.124Z,9.27
2019-05-29T06:59:05.653Z,8.17
2019-05-29T07:01:35.318Z,10.37
2019-05-29T07:04:11.881Z,7.03
2019-05-29T07:06:36.514Z,8.23
2019-05-29T07:09:07.091Z,8.10
2019-05-29T07:11:37.107Z,8.67
2019-05-29T07:14:06.503Z,7.13
2019-05-29T07:16:45.400Z,9.47
2019-05-29T07:19:24.591Z,7.97
2019-05-29T07:21:38.780Z,8.63
2019-05-29T07:24:08.274Z,7.87
2019-05-29T07:26:38.798Z,9.20
2019-05-29T07:29:08.734Z,9.57
2019-05-29T07:31:38.861Z,10.57
2019-05-29T07:34:08.368Z,10.83
2019-05-29T07:36:37.990Z,9.83
2019-05-29T07:39:08.106Z,11.40
2019-05-29T07:41:37.507Z,8.97
2019-05-29T07:44:06.898Z,9.23
2019-05-29T07:46:36.268Z,9.50
2019-05-29T07:49:05.672Z,8.57
2019-05-29T07:51:36.255Z,8.30
2019-05-29T07:54:05.721Z,9.33
2019-05-29T07:56:35.368Z,9.20
2019-05-29T07:59:04.851Z,9.47
2019-05-29T08:01:34.254Z,7.70
2019-05-29T08:04:03.659Z,8.97
2019-05-29T08:06:33.879Z,10.20
2019-05-29T08:09:04.660Z,7.87
2019-05-29T08:11:34.076Z,7.97
2019-05-29T08:14:03.470Z,9.67
2019-05-29T08:16:32.876Z,8.00
2019-05-29T08:19:02.280Z,8.87
2019-05-29T08:21:31.667Z,7.80
2019-05-29T08:24:01.041Z,8.80
2019-05-29T08:26:30.465Z,9.87
2019-05-29T08:28:59.880Z,8.27
2019-05-29T08:31:29.243Z,9.17
2019-05-29T08:33:58.704Z,8.33
2019-05-29T08:36:28.126Z,9.00
2019-05-29T08:38:57.848Z,8.73
2019-05-29T08:41:27.231Z,8.53
2019-05-29T08:43:56.631Z,9.50
2019-05-29T08:46:26.929Z,7.97
2019-05-29T08:48:56.371Z,8.40
2019-05-29T08:51:25.772Z,9.53
2019-05-29T08:53:55.187Z,8.30
2019-05-29T08:56:24.579Z,8.60
2019-05-29T08:58:53.952Z,8.57
2019-05-29T09:01:23.380Z,9.37
2019-05-29T09:03:53.383Z,10.17
2019-05-29T09:06:23.205Z,9.40
2019-05-29T09:08:54.798Z,8.73
2019-05-29T09:11:23.633Z,8.73
2019-05-29T09:13:52.999Z,7.73
2019-05-29T09:16:22.475Z,8.83
2019-05-29T09:18:51.906Z,10.27
2019-05-29T09:21:22.575Z,10.27
2019-05-29T09:23:52.357Z,9.87
2019-05-29T09:26:24.621Z,10.17
2019-05-29T09:28:52.912Z,10.43
2019-05-29T09:31:22.307Z,10.60
2019-05-29T09:33:51.705Z,10.83
2019-05-29T09:36:22.596Z,10.80
2019-05-29T09:38:52.167Z,10.03
2019-05-29T09:41:21.820Z,11.27
2019-05-29T09:43:59.234Z,10.20
2019-05-29T09:46:23.827Z,9.70
2019-05-29T09:48:53.229Z,9.40
2019-05-29T09:51:22.708Z,9.73
2019-05-29T09:53:52.538Z,10.50
2019-05-29T09:56:23.149Z,11.70
2019-05-29T09:58:53.873Z,10.27
2019-05-29T10:01:25.104Z,9.43
2019-05-29T10:03:56.704Z,10.33
2019-05-29T10:06:25.927Z,8.63
2019-05-29T10:08:56.278Z,8.73
2019-05-29T10:11:26.234Z,9.27
2019-05-29T10:13:56.860Z,8.67
2019-05-29T10:16:26.860Z,9.33
2019-05-29T10:18:57.703Z,8.90
2019-05-29T10:21:39.002Z,7.83
2019-05-29T10:23:59.524Z,7.77
2019-05-29T10:26:29.057Z,8.83
2019-05-29T10:29:07.619Z,8.47
2019-05-29T10:31:29.567Z,8.67
2019-05-29T10:33:59.241Z,9.63
2019-05-29T10:36:28.799Z,7.07
2019-05-29T10:38:58.602Z,7.63
2019-05-29T10:41:28.032Z,8.37
2019-05-29T10:43:57.485Z,7.60
2019-05-29T10:46:26.887Z,11.57
2019-05-29T10:48:56.705Z,9.97
2019-05-29T10:51:26.199Z,10.13
2019-05-29T10:53:58.430Z,9.87
2019-05-29T10:56:26.684Z,9.77
2019-05-29T10:58:59.565Z,10.27
2019-05-29T11:01:27.136Z,9.77
2019-05-29T11:03:56.562Z,9.10
2019-05-29T11:06:25.957Z,7.23
2019-05-29T11:08:56.287Z,7.60
2019-05-29T11:11:25.797Z,6.83
2019-05-29T11:13:55.257Z,7.07
2019-05-29T11:16:24.996Z,7.87
2019-05-29T11:18:55.339Z,6.23
2019-05-29T11:21:24.787Z,7.13
2019-05-29T11:23:54.168Z,7.13
2019-05-29T11:26:23.616Z,7.53
2019-05-29T11:28:54.350Z,8.13
2019-05-29T11:31:23.841Z,6.90
2019-05-29T11:33:53.248Z,7.03
2019-05-29T11:36:22.648Z,7.63
2019-05-29T11:38:52.586Z,8.17
2019-05-29T11:41:26.270Z,6.40
2019-05-29T11:43:53.049Z,7.57
2019-05-29T11:46:22.559Z,7.77
2019-05-29T11:48:53.142Z,5.93
2019-05-29T11:51:22.663Z,8.10
2019-05-29T11:53:53.320Z,7.50
2019-05-29T11:56:22.884Z,6.93
2019-05-29T11:58:52.782Z,8.37
2019-05-29T12:01:22.205Z,8.00
2019-05-29T12:04:13.999Z,6.60
2019-05-29T12:06:22.663Z,9.97
2019-05-29T12:08:53.496Z,7.77
2019-05-29T12:11:23.008Z,7.37
2019-05-29T12:13:54.017Z,5.50
2019-05-29T12:16:23.548Z,6.37
2019-05-29T12:18:53.627Z,5.97
2019-05-29T12:21:23.139Z,6.73
2019-05-29T12:23:52.515Z,7.33
2019-05-29T12:26:23.161Z,6.95
2019-05-29T12:28:53.997Z,6.53
2019-05-29T12:31:23.914Z,7.27
2019-05-29T12:33:53.309Z,6.20
2019-05-29T12:36:22.754Z,7.27
2019-05-29T12:38:53.525Z,5.90
2019-05-29T12:41:22.985Z,5.00
2019-05-29T12:43:53.275Z,4.93
2019-05-29T12:46:22.663Z,5.27
2019-05-29T12:48:53.318Z,4.70
2019-05-29T12:51:22.930Z,4.15
2019-05-29T12:53:53.740Z,5.07
2019-05-29T12:56:23.292Z,4.73
2019-05-29T12:58:54.066Z,4.55
2019-05-29T13:01:23.593Z,4.35
2019-05-29T13:03:54.031Z,4.95
2019-05-29T13:06:23.522Z,5.17
2019-05-29T13:08:54.410Z,5.20
2019-05-29T13:11:24.067Z,6.45
2019-05-29T13:13:54.363Z,5.08
2019-05-29T13:16:23.837Z,5.17
2019-05-29T13:18:54.728Z,5.33
2019-05-29T13:21:24.249Z,8.80
2019-05-29T13:23:53.671Z,4.78
2019-05-29T13:26:23.112Z,9.50
2019-05-29T13:28:52.549Z,6.92
2019-05-29T13:31:21.941Z,3.85
2019-05-29T13:33:51.428Z,4.58
2019-05-29T13:36:20.804Z,4.47
2019-05-29T13:38:50.239Z,4.00
2019-05-29T13:41:19.650Z,5.53
2019-05-29T13:43:49.075Z,4.90
2019-05-29T13:46:18.444Z,4.70
2019-05-29T13:48:47.840Z,4.33
2019-05-29T13:51:17.299Z,8.90
2019-05-29T13:54:02.062Z,5.63
2019-05-29T13:56:17.703Z,4.83
2019-05-29T13:58:47.103Z,4.10
2019-05-29T14:01:16.542Z,5.12
2019-05-29T14:03:50.212Z,4.53
2019-05-29T14:06:17.139Z,4.57
2019-05-29T14:08:46.614Z,3.97
2019-05-29T14:11:15.984Z,7.70
2019-05-29T14:13:45.513Z,4.37
2019-05-29T14:16:14.938Z,7.83
2019-05-29T14:18:44.420Z,4.50
2019-05-29T14:21:13.823Z,4.60
2019-05-29T14:23:43.220Z,5.30
2019-05-29T14:26:13.088Z,3.90
2019-05-29T14:28:42.577Z,4.97
2019-05-29T14:31:12.204Z,6.43
2019-05-29T14:33:41.601Z,7.33
2019-05-29T14:36:11.467Z,7.17
2019-05-29T14:38:41.002Z,5.97
2019-05-29T14:41:11.889Z,7.17
2019-05-29T14:43:41.317Z,4.87
2019-05-29T14:46:12.051Z,5.23
2019-05-29T14:48:41.585Z,4.70
2019-05-29T14:51:10.996Z,5.90
2019-05-29T14:53:40.393Z,11.37
2019-05-29T14:56:10.657Z,7.70
2019-05-29T14:58:40.064Z,3.80
2019-05-29T15:01:09.473Z,5.47
2019-05-29T15:03:38.847Z,4.93
2019-05-29T15:06:08.523Z,4.97
2019-05-29T15:08:38.949Z,7.57
2019-05-29T15:11:08.435Z,4.97
2019-05-29T15:13:37.874Z,6.70
2019-05-29T15:16:09.009Z,7.40
2019-05-29T15:18:38.277Z,4.90
2019-05-29T15:21:08.748Z,4.73
2019-05-29T15:23:38.411Z,4.00
2019-05-29T15:26:09.687Z,6.17
2019-05-29T15:28:39.104Z,4.57
2019-05-29T15:31:08.529Z,4.50
2019-05-29T15:33:38.044Z,3.77
2019-05-29T15:36:08.660Z,4.80
2019-05-29T15:38:38.090Z,3.80
2019-05-29T15:41:08.675Z,6.70
2019-05-29T15:43:38.236Z,6.13
2019-05-29T15:46:09.979Z,4.00
2019-05-29T15:48:38.822Z,4.17
2019-05-29T15:51:08.844Z,5.87
2019-05-29T15:53:38.320Z,5.63
2019-05-29T15:56:23.741Z,10.60
2019-05-29T15:58:38.830Z,4.00
2019-05-29T16:01:09.657Z,5.27
2019-05-29T16:03:39.120Z,4.33
2019-05-29T16:06:09.631Z,4.37
2019-05-29T16:08:39.064Z,4.20
2019-05-29T16:11:08.649Z,3.87
2019-05-29T16:13:38.046Z,2.50
2019-05-29T16:16:09.301Z,4.00
2019-05-29T16:18:38.585Z,3.40
2019-05-29T16:21:07.980Z,3.27
2019-05-29T16:23:37.403Z,7.30
2019-05-29T16:26:06.935Z,3.93
2019-05-29T16:28:36.359Z,3.43
2019-05-29T16:31:06.127Z,2.90
2019-05-29T16:33:35.608Z,3.03
2019-05-29T16:36:05.144Z,4.10
2019-05-29T16:38:34.503Z,3.43
2019-05-29T16:41:05.527Z,4.23
2019-05-29T16:43:34.959Z,2.93
2019-05-29T16:46:04.418Z,4.60
2019-05-29T16:48:33.834Z,8.10
2019-05-29T16:51:03.315Z,6.23
2019-05-29T16:53:32.735Z,5.40
2019-05-29T16:56:02.284Z,3.40
2019-05-29T16:58:31.687Z,4.13
2019-05-29T17:01:01.112Z,3.73
2019-05-29T17:03:30.552Z,2.40
2019-05-29T17:05:59.938Z,2.57
2019-05-29T17:08:29.379Z,6.43
2019-05-29T17:10:58.918Z,10.23
2019-05-29T17:13:28.307Z,2.90
2019-05-29T17:15:57.700Z,3.97
2019-05-29T17:18:27.157Z,3.97
2019-05-29T17:20:56.565Z,4.40
2019-05-29T17:23:25.965Z,7.47
2019-05-29T17:26:09.539Z,3.47
2019-05-29T17:28:28.378Z,5.00
2019-05-29T17:31:01.794Z,8.23
2019-05-29T17:33:28.980Z,4.37
2019-05-29T17:35:59.613Z,4.07
2019-05-29T17:38:29.003Z,3.90
2019-05-29T17:40:58.460Z,6.27
2019-05-29T17:43:28.794Z,3.70
2019-05-29T17:45:58.330Z,8.97
2019-05-29T17:48:27.767Z,3.60
2019-05-29T17:50:57.212Z,8.67
2019-05-29T17:53:26.591Z,3.57
2019-05-29T17:55:56.005Z,5.47
2019-05-29T17:58:26.580Z,6.77
2019-05-29T18:00:56.090Z,3.57
2019-05-29T18:03:26.352Z,3.17
2019-05-29T18:05:55.759Z,2.87
2019-05-29T18:08:25.215Z,3.23
2019-05-29T18:10:54.568Z,4.67
2019-05-29T18:13:25.238Z,3.20
2019-05-29T18:15:54.671Z,3.27
2019-05-29T18:18:24.081Z,3.83
2019-05-29T18:20:53.497Z,3.53
2019-05-29T18:23:24.225Z,3.33
2019-05-29T18:25:53.661Z,4.30
2019-05-29T18:28:24.092Z,4.50
2019-05-29T18:30:53.541Z,5.57
2019-05-29T18:33:22.948Z,3.90
2019-05-29T18:35:52.402Z,5.67
2019-05-29T18:38:22.389Z,4.27
2019-05-29T18:40:51.847Z,5.10
2019-05-29T18:43:22.420Z,5.83
2019-05-29T18:45:51.901Z,6.03
2019-05-29T18:48:21.304Z,5.33
2019-05-29T18:50:50.712Z,4.93
2019-05-29T18:53:20.734Z,6.07
2019-05-29T18:55:50.184Z,5.83
2019-05-29T18:58:19.587Z,4.37
2019-05-29T19:00:49.016Z,4.70
2019-05-29T19:03:18.500Z,4.70
2019-05-29T19:05:47.890Z,6.70
2019-05-29T19:08:17.281Z,7.47
2019-05-29T19:10:46.684Z,7.77
2019-05-29T19:13:16.096Z,4.90
2019-05-29T19:15:45.497Z,5.70
2019-05-29T19:18:14.861Z,4.53
2019-05-29T19:20:44.243Z,6.23
2019-05-29T19:23:13.677Z,5.10
2019-05-29T19:25:43.059Z,4.97
2019-05-29T19:28:12.488Z,4.60
2019-05-29T19:30:41.867Z,4.57
2019-05-29T19:33:11.327Z,4.63
2019-05-29T19:35:40.683Z,5.53
2019-05-29T19:38:10.097Z,5.23
2019-05-29T19:40:39.521Z,4.70
2019-05-29T19:43:09.604Z,4.93
2019-05-29T19:45:38.984Z,7.87
2019-05-29T19:48:08.427Z,5.00
2019-05-29T19:50:37.810Z,6.03
2019-05-29T19:53:07.196Z,7.60
2019-05-29T19:55:38.256Z,11.07
2019-05-29T19:58:07.772Z,6.63
2019-05-29T20:00:37.222Z,7.10
2019-05-29T20:03:06.623Z,11.00
2019-05-29T20:05:37.035Z,7.63
2019-05-29T20:08:06.438Z,13.27
2019-05-29T20:10:35.821Z,6.97
2019-05-29T20:13:05.304Z,7.43
2019-05-29T20:15:36.009Z,8.67
2019-05-29T20:18:05.656Z,7.30
2019-05-29T20:20:34.999Z,8.70
2019-05-29T20:23:04.647Z,7.97
2019-05-29T20:25:34.976Z,7.37
2019-05-29T20:28:06.644Z,7.67
2019-05-29T20:30:36.466Z,12.67
2019-05-29T20:33:05.967Z,7.77
2019-05-29T20:35:35.400Z,8.53
2019-05-29T20:38:06.630Z,9.10
2019-05-29T20:40:37.202Z,8.03
2019-05-29T20:43:06.745Z,8.57
2019-05-29T20:45:36.150Z,8.43
2019-05-29T20:48:05.481Z,8.50
2019-05-29T20:50:34.955Z,9.40
2019-05-29T20:53:04.347Z,10.13
2019-05-29T20:55:33.856Z,9.57
2019-05-29T20:58:03.158Z,13.23
2019-05-29T21:00:33.697Z,9.43
2019-05-29T21:03:03.320Z,17.50
2019-05-29T21:05:32.711Z,10.33
2019-05-29T21:08:02.132Z,10.13
2019-05-29T21:10:31.540Z,11.27
2019-05-29T21:13:00.984Z,11.00
2019-05-29T21:15:30.388Z,10.67
2019-05-29T21:17:59.775Z,11.03
2019-05-29T21:20:29.319Z,11.57
2019-05-29T21:22:58.712Z,11.40
2019-05-29T21:25:28.099Z,12.00
2019-05-29T21:27:57.510Z,12.07
2019-05-29T21:30:26.922Z,12.60
2019-05-29T21:32:56.329Z,12.93
2019-05-29T21:35:25.750Z,11.93
2019-05-29T21:37:55.159Z,12.47
2019-05-29T21:40:24.589Z,12.90
2019-05-29T21:42:54.028Z,12.37
2019-05-29T21:45:23.460Z,13.03
2019-05-29T21:47:53.383Z,12.17
2019-05-29T21:50:22.771Z,12.30
2019-05-29T21:52:52.190Z,11.90
2019-05-29T21:55:21.596Z,11.70
2019-05-29T21:57:51.039Z,11.70
2019-05-29T22:00:38.428Z,10.67
2019-05-29T22:03:07.824Z,10.57
2019-05-29T22:05:38.444Z,9.30
2019-05-29T22:08:08.014Z,9.50
2019-05-29T22:10:37.396Z,9.63
2019-05-29T22:13:06.808Z,10.47
2019-05-29T22:15:36.385Z,9.97
2019-05-29T22:18:06.001Z,9.57
2019-05-29T22:20:35.456Z,9.60
2019-05-29T22:23:04.848Z,9.77
2019-05-29T22:25:34.844Z,9.73
2019-05-29T22:28:04.365Z,12.33
2019-05-29T22:30:33.771Z,9.27
2019-05-29T22:33:03.150Z,9.30
2019-05-29T22:35:32.571Z,9.30
2019-05-29T22:38:01.966Z,9.97
2019-05-29T22:40:31.382Z,9.87
2019-05-29T22:43:01.917Z,9.67
2019-05-29T22:45:31.349Z,9.90
2019-05-29T22:48:02.118Z,11.40
2019-05-29T22:50:31.558Z,9.73
2019-05-29T22:53:02.005Z,10.47
2019-05-29T22:55:31.476Z,9.63
2019-05-29T22:58:02.096Z,9.17
2019-05-29T23:00:31.563Z,9.63
2019-05-29T23:03:02.296Z,9.80
2019-05-29T23:05:31.786Z,10.13
2019-05-29T23:08:02.416Z,8.30
2019-05-29T23:10:31.822Z,9.80
2019-05-29T23:13:04.376Z,13.53
2019-05-29T23:15:32.382Z,9.53
2019-05-29T23:18:02.838Z,10.73
2019-05-29T23:20:32.260Z,11.20
2019-05-29T23:23:02.801Z,10.00
2019-05-29T23:25:32.271Z,11.47
2019-05-29T23:28:03.101Z,11.40
2019-05-29T23:30:32.584Z,11.97
2019-05-29T23:33:03.249Z,12.30
2019-05-29T23:35:32.759Z,12.80
2019-05-29T23:38:03.358Z,12.60
2019-05-29T23:40:32.882Z,12.93
2019-05-29T23:43:03.537Z,12.23
2019-05-29T23:45:33.066Z,13.40
2019-05-29T23:48:03.760Z,13.47
2019-05-29T23:50:33.235Z,13.53
2019-05-29T23:53:03.875Z,12.67
2019-05-29T23:55:36.792Z,12.83
2019-05-29T23:58:10.714Z,12.33
